createdAt,value
2019-03-18T00:00:42.497Z,0.50
2019-03-18T00:03:11.108Z,0.67
2019-03-18T00:05:39.605Z,0.30
2019-03-18T00:08:08.467Z,0.30
2019-03-18T00:10:37.244Z,0.30
2019-03-18T00:13:05.757Z,0.33
2019-03-18T00:15:34.263Z,0.30
2019-03-18T00:18:02.787Z,0.30
2019-03-18T00:20:31.543Z,0.40
2019-03-18T00:23:00.069Z,0.40
2019-03-18T00:25:28.590Z,0.40
2019-03-18T00:27:57.115Z,0.27
2019-03-18T00:30:25.941Z,0.30
2019-03-18T00:32:54.472Z,0.30
2019-03-18T00:35:23.316Z,0.40
2019-03-18T00:37:51.908Z,0.20
2019-03-18T00:40:20.742Z,0.30
2019-03-18T00:42:49.383Z,0.33
2019-03-18T00:45:17.924Z,0.30
2019-03-18T00:47:46.697Z,0.20
2019-03-18T00:50:15.204Z,0.20
2019-03-18T00:52:43.716Z,0.30
2019-03-18T00:55:12.254Z,0.43
2019-03-18T00:57:40.783Z,0.17
2019-03-18T01:00:09.525Z,0.30
2019-03-18T01:02:38.016Z,0.20
2019-03-18T01:05:06.641Z,0.30
2019-03-18T01:07:35.477Z,0.27
2019-03-18T01:10:04.550Z,0.37
2019-03-18T01:12:33.705Z,0.30
2019-03-18T01:15:02.243Z,0.20
2019-03-18T01:17:30.756Z,0.20
2019-03-18T01:19:59.270Z,0.60
2019-03-18T01:22:27.831Z,0.30
2019-03-18T01:24:56.983Z,0.30
2019-03-18T01:27:25.635Z,0.40
2019-03-18T01:29:54.516Z,0.30
2019-03-18T01:32:23.005Z,0.30
2019-03-18T01:34:51.541Z,0.30
2019-03-18T01:37:20.027Z,0.37
2019-03-18T01:39:49.014Z,0.30
2019-03-18T01:42:17.544Z,0.20
2019-03-18T01:44:46.067Z,0.20
2019-03-18T01:47:14.870Z,0.30
2019-03-18T01:49:43.360Z,0.27
2019-03-18T01:52:11.889Z,0.20
2019-03-18T01:54:40.450Z,0.20
2019-03-18T01:57:08.986Z,0.30
2019-03-18T01:59:37.596Z,0.27
2019-03-18T02:02:06.138Z,0.17
2019-03-18T02:04:34.942Z,0.30
2019-03-18T02:07:03.467Z,0.20
2019-03-18T02:09:31.999Z,0.30
2019-03-18T02:12:00.487Z,0.20
2019-03-18T02:14:28.988Z,0.23
2019-03-18T02:16:57.540Z,0.23
2019-03-18T02:19:26.072Z,0.30
2019-03-18T02:21:54.586Z,0.20
2019-03-18T02:24:23.072Z,0.20
2019-03-18T02:26:52.091Z,0.20
2019-03-18T02:29:20.881Z,0.37
2019-03-18T02:31:49.409Z,0.20
2019-03-18T02:34:17.895Z,0.20
2019-03-18T02:36:46.416Z,0.30
2019-03-18T02:39:15.190Z,0.20
2019-03-18T02:41:43.691Z,0.30
2019-03-18T02:44:12.194Z,0.20
2019-03-18T02:46:40.878Z,0.30
2019-03-18T02:49:09.474Z,0.20
2019-03-18T02:51:38.061Z,0.20
2019-03-18T02:54:06.579Z,0.30
2019-03-18T02:56:35.077Z,0.20
2019-03-18T02:59:03.618Z,0.17
2019-03-18T03:01:32.147Z,0.20
2019-03-18T03:04:00.662Z,0.40
2019-03-18T03:06:29.178Z,0.10
2019-03-18T03:08:58.015Z,0.13
2019-03-18T03:11:26.554Z,0.30
2019-03-18T03:13:55.374Z,0.30
2019-03-18T03:16:27.218Z,0.10
2019-03-18T03:18:54.123Z,0.20
2019-03-18T03:21:22.631Z,0.30
2019-03-18T03:23:51.149Z,0.20
2019-03-18T03:26:19.669Z,0.20
2019-03-18T03:28:48.190Z,0.10
2019-03-18T03:31:16.711Z,0.20
2019-03-18T03:33:45.242Z,0.10
2019-03-18T03:36:13.809Z,0.30
2019-03-18T03:38:42.292Z,0.40
2019-03-18T03:41:10.854Z,0.20
2019-03-18T03:43:39.394Z,0.20
2019-03-18T03:46:07.894Z,0.27
2019-03-18T03:48:36.520Z,0.30
2019-03-18T03:51:05.023Z,0.20
2019-03-18T03:53:33.869Z,0.30
2019-03-18T03:56:02.379Z,0.20
2019-03-18T03:58:30.922Z,0.30
2019-03-18T04:00:59.442Z,0.23
2019-03-18T04:03:38.404Z,0.23
2019-03-18T04:05:58.505Z,0.20
2019-03-18T04:08:27.092Z,0.20
2019-03-18T04:10:55.548Z,0.20
2019-03-18T04:13:24.082Z,0.20
2019-03-18T04:15:52.837Z,0.20
2019-03-18T04:18:21.358Z,0.20
2019-03-18T04:20:49.883Z,0.20
2019-03-18T04:23:18.434Z,0.30
2019-03-18T04:25:46.978Z,0.10
2019-03-18T04:28:15.587Z,0.20
2019-03-18T04:30:44.097Z,0.20
2019-03-18T04:33:12.897Z,0.17
2019-03-18T04:35:41.789Z,0.20
2019-03-18T04:38:10.282Z,0.20
2019-03-18T04:40:39.068Z,0.10
2019-03-18T04:43:07.585Z,0.13
2019-03-18T04:45:36.467Z,0.20
2019-03-18T04:48:04.996Z,0.20
2019-03-18T04:50:33.641Z,0.20
2019-03-18T04:53:02.169Z,0.20
2019-03-18T04:55:30.707Z,0.10
2019-03-18T04:57:59.207Z,0.20
2019-03-18T05:00:27.806Z,0.10
2019-03-18T05:02:56.552Z,0.17
2019-03-18T05:05:25.053Z,0.20
2019-03-18T05:07:53.551Z,0.20
2019-03-18T05:10:22.093Z,0.20
2019-03-18T05:12:50.620Z,0.20
2019-03-18T05:15:19.161Z,0.17
2019-03-18T05:17:47.705Z,0.20
2019-03-18T05:20:16.245Z,0.20
2019-03-18T05:22:45.094Z,0.20
2019-03-18T05:25:13.612Z,0.20
2019-03-18T05:27:42.148Z,0.20
2019-03-18T05:30:10.847Z,0.20
2019-03-18T05:32:39.345Z,0.10
2019-03-18T05:35:07.951Z,0.23
2019-03-18T05:37:36.522Z,0.30
2019-03-18T05:40:05.106Z,0.13
2019-03-18T05:42:33.621Z,0.20
2019-03-18T05:45:02.443Z,0.20
2019-03-18T05:47:39.057Z,0.20
2019-03-18T05:50:01.471Z,0.20
2019-03-18T05:52:30.320Z,0.10
2019-03-18T05:54:58.863Z,0.10
2019-03-18T05:57:27.354Z,0.10
2019-03-18T05:59:55.902Z,0.20
2019-03-18T06:02:24.754Z,1.50
2019-03-18T06:04:53.293Z,1.80
2019-03-18T06:07:21.801Z,1.60
2019-03-18T06:09:50.334Z,1.53
2019-03-18T06:12:18.817Z,1.87
2019-03-18T06:14:47.376Z,1.90
2019-03-18T06:17:16.179Z,1.37
2019-03-18T06:19:44.698Z,1.00
2019-03-18T06:22:13.262Z,1.50
2019-03-18T06:24:41.807Z,1.10
2019-03-18T06:27:10.590Z,1.40
2019-03-18T06:29:39.126Z,1.00
2019-03-18T06:32:08.009Z,1.20
2019-03-18T06:34:36.547Z,1.43
2019-03-18T06:37:05.070Z,1.00
2019-03-18T06:39:33.936Z,1.00
2019-03-18T06:42:02.729Z,1.03
2019-03-18T06:44:31.514Z,1.00
2019-03-18T06:47:00.060Z,1.30
2019-03-18T06:49:28.906Z,1.03
2019-03-18T06:51:57.425Z,1.07
2019-03-18T06:54:25.952Z,0.70
2019-03-18T06:56:54.469Z,0.87
2019-03-18T06:59:23.023Z,1.10
2019-03-18T07:01:51.503Z,1.87
2019-03-18T07:04:20.170Z,1.87
2019-03-18T07:06:48.923Z,2.20
2019-03-18T07:09:17.442Z,2.30
2019-03-18T07:11:46.259Z,2.87
2019-03-18T07:14:14.771Z,2.03
2019-03-18T07:16:43.267Z,2.17
2019-03-18T07:19:11.791Z,1.80
2019-03-18T07:21:40.406Z,2.20
2019-03-18T07:24:09.352Z,2.23
2019-03-18T07:26:37.855Z,2.00
2019-03-18T07:29:06.379Z,2.10
2019-03-18T07:31:34.891Z,2.60
2019-03-18T07:34:03.656Z,2.50
2019-03-18T07:36:32.424Z,2.70
2019-03-18T07:39:01.367Z,3.23
2019-03-18T07:41:29.899Z,2.47
2019-03-18T07:43:58.428Z,2.90
2019-03-18T07:46:26.980Z,3.00
2019-03-18T07:48:55.499Z,2.83
2019-03-18T07:51:25.342Z,2.67
2019-03-18T07:53:53.871Z,2.73
2019-03-18T07:56:22.368Z,3.20
2019-03-18T07:58:50.879Z,3.30
2019-03-18T08:01:19.530Z,3.20
2019-03-18T08:03:48.291Z,2.90
2019-03-18T08:06:16.817Z,3.27
2019-03-18T08:08:45.402Z,2.80
2019-03-18T08:11:14.188Z,3.13
2019-03-18T08:13:42.766Z,2.80
2019-03-18T08:16:11.386Z,2.63
2019-03-18T08:18:43.436Z,2.77
2019-03-18T08:21:10.126Z,2.70
2019-03-18T08:23:38.643Z,2.80
2019-03-18T08:26:07.170Z,2.40
2019-03-18T08:28:35.692Z,2.40
2019-03-18T08:31:04.217Z,2.73
2019-03-18T08:33:32.737Z,2.53
2019-03-18T08:36:01.531Z,2.60
2019-03-18T08:38:30.059Z,2.53
2019-03-18T08:40:58.582Z,3.37
2019-03-18T08:43:27.098Z,2.37
2019-03-18T08:45:55.610Z,2.60
2019-03-18T08:48:24.183Z,2.73
2019-03-18T08:50:52.729Z,2.30
2019-03-18T08:53:21.274Z,2.30
2019-03-18T08:55:49.771Z,2.80
2019-03-18T08:58:18.287Z,2.17
2019-03-18T09:00:46.829Z,2.17
2019-03-18T09:03:15.341Z,2.73
2019-03-18T09:05:44.175Z,2.47
2019-03-18T09:08:12.682Z,2.80
2019-03-18T09:10:41.183Z,2.97
2019-03-18T09:13:10.274Z,2.57
2019-03-18T09:15:38.805Z,2.63
2019-03-18T09:18:07.322Z,2.90
2019-03-18T09:20:35.883Z,2.63
2019-03-18T09:23:04.736Z,2.77
2019-03-18T09:25:33.572Z,2.70
2019-03-18T09:28:02.094Z,2.60
2019-03-18T09:30:31.195Z,2.60
2019-03-18T09:32:59.701Z,2.50
2019-03-18T09:35:28.251Z,2.60
2019-03-18T09:37:56.782Z,2.73
2019-03-18T09:40:25.295Z,2.10
2019-03-18T09:42:54.148Z,2.33
2019-03-18T09:45:22.990Z,1.90
2019-03-18T09:47:51.481Z,3.23
2019-03-18T09:50:20.269Z,2.47
2019-03-18T09:52:48.823Z,2.83
2019-03-18T09:55:17.574Z,2.60
2019-03-18T09:57:46.099Z,2.17
2019-03-18T10:00:14.615Z,2.13
2019-03-18T10:02:43.154Z,2.13
2019-03-18T10:05:11.686Z,2.30
2019-03-18T10:07:40.198Z,2.10
2019-03-18T10:10:08.789Z,2.20
2019-03-18T10:12:37.343Z,2.17
2019-03-18T10:15:06.774Z,2.50
2019-03-18T10:17:35.302Z,2.40
2019-03-18T10:20:04.238Z,2.07
2019-03-18T10:22:35.899Z,2.33
2019-03-18T10:25:04.469Z,2.37
2019-03-18T10:27:33.053Z,2.67
2019-03-18T10:30:01.625Z,2.47
2019-03-18T10:32:30.132Z,2.23
2019-03-18T10:34:58.647Z,2.40
2019-03-18T10:37:27.447Z,2.60
2019-03-18T10:39:55.957Z,2.50
2019-03-18T10:42:24.463Z,2.80
2019-03-18T10:44:52.989Z,2.50
2019-03-18T10:47:21.532Z,1.83
2019-03-18T10:49:50.338Z,2.40
2019-03-18T10:52:18.978Z,2.20
2019-03-18T10:54:47.463Z,2.20
2019-03-18T10:57:16.060Z,2.00
2019-03-18T10:59:44.523Z,1.87
2019-03-18T11:02:13.042Z,1.90
2019-03-18T11:04:41.586Z,1.77
2019-03-18T11:07:10.196Z,2.10
2019-03-18T11:09:38.692Z,2.30
2019-03-18T11:12:07.227Z,2.30
2019-03-18T11:14:36.052Z,2.13
2019-03-18T11:17:04.560Z,2.27
2019-03-18T11:19:33.089Z,2.57
2019-03-18T11:22:01.630Z,1.67
2019-03-18T11:24:30.538Z,2.17
2019-03-18T11:26:59.062Z,2.17
2019-03-18T11:29:27.567Z,2.20
2019-03-18T11:31:56.100Z,2.10
2019-03-18T11:34:24.645Z,1.80
2019-03-18T11:36:53.144Z,1.90
2019-03-18T11:39:21.635Z,2.43
2019-03-18T11:41:50.173Z,1.53
2019-03-18T11:44:18.979Z,2.07
2019-03-18T11:46:47.500Z,1.87
2019-03-18T11:49:16.025Z,1.83
2019-03-18T11:51:44.540Z,1.70
2019-03-18T11:54:13.106Z,1.83
2019-03-18T11:56:41.625Z,1.90
2019-03-18T11:59:10.175Z,1.63
2019-03-18T12:01:38.682Z,2.10
2019-03-18T12:04:07.262Z,1.77
2019-03-18T12:06:35.875Z,2.27
2019-03-18T12:09:05.368Z,2.00
2019-03-18T12:11:33.946Z,1.97
2019-03-18T12:14:02.478Z,1.57
2019-03-18T12:16:31.251Z,1.60
2019-03-18T12:18:59.801Z,1.50
2019-03-18T12:21:28.342Z,1.57
2019-03-18T12:23:57.155Z,1.63
2019-03-18T12:26:25.708Z,1.83
2019-03-18T12:28:54.319Z,1.40
2019-03-18T12:31:22.822Z,1.67
2019-03-18T12:33:51.311Z,1.90
2019-03-18T12:36:19.887Z,2.00
2019-03-18T12:38:48.426Z,2.07
2019-03-18T12:41:16.947Z,1.53
2019-03-18T12:43:45.465Z,1.80
2019-03-18T12:46:13.999Z,1.30
2019-03-18T12:48:43.081Z,2.07
2019-03-18T12:51:11.596Z,1.73
2019-03-18T12:53:40.142Z,1.53
2019-03-18T12:56:08.651Z,1.67
2019-03-18T12:58:37.175Z,1.50
2019-03-18T13:01:12.550Z,1.47
2019-03-18T13:03:36.323Z,1.83
2019-03-18T13:06:04.831Z,1.40
2019-03-18T13:08:33.990Z,1.43
2019-03-18T13:11:02.485Z,1.67
2019-03-18T13:13:30.996Z,1.50
2019-03-18T13:15:59.521Z,1.40
2019-03-18T13:18:28.045Z,1.60
2019-03-18T13:21:07.378Z,1.47
2019-03-18T13:23:27.119Z,1.23
2019-03-18T13:25:55.636Z,1.97
2019-03-18T13:28:24.170Z,1.43
2019-03-18T13:30:52.701Z,1.60
2019-03-18T13:33:21.556Z,1.47
2019-03-18T13:35:50.068Z,1.50
2019-03-18T13:38:18.564Z,1.50
2019-03-18T13:40:47.058Z,1.27
2019-03-18T13:43:15.578Z,1.10
2019-03-18T13:45:54.858Z,1.30
2019-03-18T13:48:14.383Z,1.50
2019-03-18T13:50:42.911Z,1.33
2019-03-18T13:53:11.757Z,1.33
2019-03-18T13:55:40.295Z,1.30
2019-03-18T13:58:08.795Z,1.33
2019-03-18T14:00:37.320Z,1.10
2019-03-18T14:03:05.958Z,1.60
2019-03-18T14:05:34.463Z,1.37
2019-03-18T14:08:03.279Z,1.30
2019-03-18T14:10:31.875Z,1.43
2019-03-18T14:13:00.392Z,1.40
2019-03-18T14:15:28.918Z,1.40
2019-03-18T14:17:57.441Z,1.00
2019-03-18T14:20:25.974Z,1.03
2019-03-18T14:22:54.502Z,1.20
2019-03-18T14:25:23.360Z,1.10
2019-03-18T14:27:51.864Z,1.30
2019-03-18T14:30:20.464Z,1.47
2019-03-18T14:32:49.320Z,1.00
2019-03-18T14:35:21.629Z,1.20
2019-03-18T14:37:48.088Z,1.20
2019-03-18T14:40:16.774Z,1.30
2019-03-18T14:42:45.314Z,1.50
2019-03-18T14:45:15.775Z,1.20
2019-03-18T14:47:44.298Z,1.20
2019-03-18T14:50:12.865Z,1.50
2019-03-18T14:52:41.668Z,1.27
2019-03-18T14:55:10.445Z,1.80
2019-03-18T14:57:39.263Z,2.30
2019-03-18T15:00:14.725Z,1.90
2019-03-18T15:02:43.364Z,2.23
2019-03-18T15:05:12.102Z,1.70
2019-03-18T15:07:40.600Z,1.87
2019-03-18T15:10:09.611Z,1.50
2019-03-18T15:12:38.134Z,1.10
2019-03-18T15:15:07.288Z,0.80
2019-03-18T15:17:35.801Z,1.07
2019-03-18T15:20:04.827Z,0.90
2019-03-18T15:22:33.671Z,0.77
2019-03-18T15:25:02.216Z,0.80
2019-03-18T15:27:30.791Z,0.60
2019-03-18T15:29:59.342Z,0.60
2019-03-18T15:32:27.870Z,0.90
2019-03-18T15:34:56.358Z,0.80
2019-03-18T15:37:24.899Z,0.60
2019-03-18T15:39:53.417Z,0.67
2019-03-18T15:42:21.945Z,0.80
2019-03-18T15:44:50.507Z,1.17
2019-03-18T15:47:19.028Z,1.10
2019-03-18T15:49:47.559Z,0.97
2019-03-18T15:52:16.386Z,1.30
2019-03-18T15:54:53.739Z,1.50
2019-03-18T15:57:15.524Z,1.43
2019-03-18T15:59:44.130Z,1.70
2019-03-18T16:02:12.866Z,1.93
2019-03-18T16:04:41.377Z,1.80
2019-03-18T16:07:09.894Z,2.40
2019-03-18T16:09:38.829Z,2.20
2019-03-18T16:12:07.332Z,2.10
2019-03-18T16:14:36.075Z,2.20
2019-03-18T16:17:04.605Z,2.70
2019-03-18T16:19:33.136Z,2.13
2019-03-18T16:22:01.667Z,2.17
2019-03-18T16:24:30.203Z,2.13
2019-03-18T16:26:58.738Z,2.17
2019-03-18T16:29:27.253Z,2.40
2019-03-18T16:31:55.762Z,2.27
2019-03-18T16:34:24.267Z,2.63
2019-03-18T16:36:52.807Z,2.10
2019-03-18T16:39:21.346Z,2.33
2019-03-18T16:41:49.920Z,2.60
2019-03-18T16:44:18.486Z,2.60
2019-03-18T16:46:47.050Z,2.80
2019-03-18T16:49:15.588Z,3.07
2019-03-18T16:51:44.241Z,2.57
2019-03-18T16:54:12.783Z,3.33
2019-03-18T16:56:41.319Z,2.60
2019-03-18T16:59:09.864Z,3.33
2019-03-18T17:01:38.358Z,2.43
2019-03-18T17:04:06.923Z,2.40
2019-03-18T17:06:37.851Z,2.50
2019-03-18T17:09:07.255Z,2.30
2019-03-18T17:11:36.005Z,2.70
2019-03-18T17:14:04.957Z,2.10
2019-03-18T17:16:33.489Z,2.60
2019-03-18T17:19:02.366Z,2.37
2019-03-18T17:21:30.916Z,2.10
2019-03-18T17:23:59.440Z,2.60
2019-03-18T17:26:27.959Z,2.37
2019-03-18T17:28:56.474Z,2.60
2019-03-18T17:31:25.044Z,3.00
2019-03-18T17:33:53.853Z,2.00
2019-03-18T17:36:22.373Z,2.30
2019-03-18T17:38:50.877Z,2.33
2019-03-18T17:41:19.623Z,2.20
2019-03-18T17:43:48.161Z,2.20
2019-03-18T17:46:17.032Z,2.43
2019-03-18T17:48:45.570Z,2.47
2019-03-18T17:51:14.118Z,2.23
2019-03-18T17:53:42.935Z,1.97
2019-03-18T17:56:11.479Z,2.20
2019-03-18T17:58:40.015Z,2.47
2019-03-18T18:01:08.853Z,2.13
2019-03-18T18:03:37.382Z,2.30
2019-03-18T18:06:05.961Z,2.03
2019-03-18T18:08:34.496Z,2.17
2019-03-18T18:11:02.977Z,2.53
2019-03-18T18:13:31.537Z,1.97
2019-03-18T18:16:00.168Z,2.17
2019-03-18T18:18:29.018Z,1.67
2019-03-18T18:20:57.525Z,2.33
2019-03-18T18:23:26.102Z,2.23
2019-03-18T18:25:54.624Z,2.07
2019-03-18T18:28:23.154Z,2.13
2019-03-18T18:30:51.762Z,2.13
2019-03-18T18:33:20.303Z,2.10
2019-03-18T18:35:48.782Z,1.90
2019-03-18T18:38:17.310Z,2.33
2019-03-18T18:40:45.846Z,2.07
2019-03-18T18:43:14.363Z,1.97
2019-03-18T18:45:42.877Z,2.73
2019-03-18T18:48:11.429Z,2.30
2019-03-18T18:50:40.038Z,2.00
2019-03-18T18:53:08.561Z,2.00
2019-03-18T18:55:37.059Z,2.13
2019-03-18T18:58:05.585Z,1.73
2019-03-18T19:00:34.110Z,2.03
2019-03-18T19:03:02.620Z,2.00
2019-03-18T19:05:31.156Z,2.10
2019-03-18T19:07:59.675Z,1.90
2019-03-18T19:10:28.183Z,2.07
2019-03-18T19:12:56.737Z,1.90
2019-03-18T19:15:25.565Z,1.87
2019-03-18T19:17:54.079Z,2.00
2019-03-18T19:20:22.600Z,2.23
2019-03-18T19:22:51.512Z,1.80
2019-03-18T19:25:20.067Z,1.90
2019-03-18T19:27:48.670Z,1.80
2019-03-18T19:30:18.033Z,1.83
2019-03-18T19:32:46.550Z,1.73
2019-03-18T19:35:15.092Z,1.80
2019-03-18T19:37:43.910Z,1.70
2019-03-18T19:40:13.065Z,1.90
2019-03-18T19:42:41.797Z,3.00
2019-03-18T19:45:11.352Z,2.40
2019-03-18T19:47:39.861Z,1.90
2019-03-18T19:50:10.772Z,1.70
2019-03-18T19:52:40.163Z,1.80
2019-03-18T19:55:08.976Z,1.50
2019-03-18T19:57:37.493Z,2.03
2019-03-18T20:00:07.522Z,1.53
2019-03-18T20:02:36.122Z,1.40
2019-03-18T20:05:14.625Z,1.23
2019-03-18T20:07:35.182Z,0.93
2019-03-18T20:10:03.740Z,1.03
2019-03-18T20:12:32.247Z,1.10
2019-03-18T20:15:00.768Z,0.90
2019-03-18T20:17:29.288Z,0.70
2019-03-18T20:19:57.808Z,0.60
2019-03-18T20:22:26.555Z,0.70
2019-03-18T20:24:55.091Z,0.70
2019-03-18T20:27:23.861Z,0.67
2019-03-18T20:29:52.460Z,0.50
2019-03-18T20:32:20.966Z,0.53
2019-03-18T20:34:49.811Z,1.10
2019-03-18T20:37:18.337Z,0.70
2019-03-18T20:39:47.183Z,0.70
2019-03-18T20:42:15.707Z,0.60
2019-03-18T20:44:44.291Z,0.60
2019-03-18T20:47:12.814Z,0.50
2019-03-18T20:49:41.623Z,0.50
2019-03-18T20:52:16.823Z,0.67
2019-03-18T20:54:41.629Z,0.50
2019-03-18T20:57:10.323Z,0.40
2019-03-18T20:59:38.858Z,0.67
2019-03-18T21:02:07.359Z,0.50
2019-03-18T21:04:35.904Z,0.50
2019-03-18T21:07:04.749Z,0.40
2019-03-18T21:09:33.577Z,0.40
2019-03-18T21:12:02.093Z,0.50
2019-03-18T21:14:30.747Z,0.50
2019-03-18T21:16:59.550Z,0.50
2019-03-18T21:19:28.081Z,0.30
2019-03-18T21:21:56.924Z,0.57
2019-03-18T21:24:25.431Z,0.37
2019-03-18T21:26:53.971Z,0.40
2019-03-18T21:29:22.483Z,0.40
2019-03-18T21:31:51.051Z,0.47
2019-03-18T21:34:19.585Z,0.67
2019-03-18T21:36:48.373Z,0.40
2019-03-18T21:39:18.061Z,0.40
2019-03-18T21:41:46.688Z,0.60
2019-03-18T21:44:15.209Z,0.63
2019-03-18T21:46:43.745Z,0.40
2019-03-18T21:49:12.270Z,0.60
2019-03-18T21:51:40.783Z,0.50
2019-03-18T21:54:09.399Z,0.50
2019-03-18T21:56:38.065Z,0.60
2019-03-18T21:59:06.607Z,0.40
2019-03-18T22:01:35.132Z,0.33
2019-03-18T22:04:03.666Z,0.70
2019-03-18T22:06:32.224Z,0.30
2019-03-18T22:09:00.731Z,0.30
2019-03-18T22:11:29.247Z,0.33
2019-03-18T22:13:57.791Z,0.50
2019-03-18T22:16:26.335Z,0.40
2019-03-18T22:18:54.871Z,0.43
2019-03-18T22:21:23.413Z,0.50
2019-03-18T22:23:51.930Z,0.53
2019-03-18T22:26:20.458Z,0.33
2019-03-18T22:28:48.976Z,0.40
2019-03-18T22:31:17.469Z,0.77
2019-03-18T22:33:46.046Z,0.50
2019-03-18T22:36:14.911Z,0.40
2019-03-18T22:38:43.421Z,0.73
2019-03-18T22:41:11.929Z,0.70
2019-03-18T22:43:40.435Z,0.43
2019-03-18T22:46:09.014Z,0.60
2019-03-18T22:48:37.483Z,0.37
2019-03-18T22:51:06.307Z,0.40
2019-03-18T22:53:34.826Z,0.47
2019-03-18T22:56:03.348Z,0.50
2019-03-18T22:58:31.860Z,0.43
2019-03-18T23:01:11.255Z,0.37
2019-03-18T23:03:39.779Z,0.50
2019-03-18T23:06:08.326Z,0.50
2019-03-18T23:08:36.831Z,0.50
2019-03-18T23:11:05.350Z,0.40
2019-03-18T23:13:33.912Z,0.20
2019-03-18T23:16:02.509Z,0.30
2019-03-18T23:18:31.021Z,0.43
2019-03-18T23:20:59.533Z,0.30
2019-03-18T23:23:28.053Z,0.50
2019-03-18T23:25:56.567Z,0.37
2019-03-18T23:28:25.095Z,0.40
2019-03-18T23:30:53.623Z,0.30
2019-03-18T23:33:22.156Z,0.40
2019-03-18T23:35:50.724Z,0.40
2019-03-18T23:38:19.275Z,0.40
2019-03-18T23:40:47.807Z,0.30
2019-03-18T23:43:16.316Z,0.60
2019-03-18T23:45:45.155Z,0.50
2019-03-18T23:48:13.662Z,0.23
2019-03-18T23:50:42.188Z,0.30
2019-03-18T23:53:10.697Z,0.40
2019-03-18T23:55:39.207Z,0.30
2019-03-18T23:58:07.759Z,0.40
